sensor_id;sensor_type;location;lat;lon;timestamp;P1;durP1;ratioP1;P2;durP2;ratioP2
33696;SDS011;20031;43.416;23.232;2023-07-31T00:00:29;6.25;;;2.03;;
33696;SDS011;20031;43.416;23.232;2023-07-31T00:02:55;5.35;;;2.10;;
33696;SDS011;20031;43.416;23.232;2023-07-31T00:05:21;3.75;;;2.05;;
33696;SDS011;20031;43.416;23.232;2023-07-31T00:07:46;5.28;;;1.98;;
33696;SDS011;20031;43.416;23.232;2023-07-31T00:10:12;2.08;;;1.60;;
33696;SDS011;20031;43.416;23.232;2023-07-31T00:12:38;4.47;;;1.85;;
33696;SDS011;20031;43.416;23.232;2023-07-31T00:15:05;9.13;;;1.60;;
33696;SDS011;20031;43.416;23.232;2023-07-31T00:17:31;8.30;;;2.00;;
33696;SDS011;20031;43.416;23.232;2023-07-31T00:19:57;4.00;;;1.70;;
33696;SDS011;20031;43.416;23.232;2023-07-31T00:22:22;3.90;;;1.73;;
33696;SDS011;20031;43.416;23.232;2023-07-31T00:24:48;2.80;;;1.70;;
33696;SDS011;20031;43.416;23.232;2023-07-31T00:27:14;2.75;;;1.88;;
33696;SDS011;20031;43.416;23.232;2023-07-31T00:29:40;4.03;;;1.80;;
33696;SDS011;20031;43.416;23.232;2023-07-31T00:32:05;2.72;;;1.55;;
33696;SDS011;20031;43.416;23.232;2023-07-31T00:34:31;3.65;;;1.90;;
33696;SDS011;20031;43.416;23.232;2023-07-31T00:36:57;3.53;;;1.90;;
33696;SDS011;20031;43.416;23.232;2023-07-31T00:39:22;3.55;;;1.80;;
33696;SDS011;20031;43.416;23.232;2023-07-31T00:41:47;3.60;;;1.70;;
33696;SDS011;20031;43.416;23.232;2023-07-31T00:44:13;4.20;;;1.65;;
33696;SDS011;20031;43.416;23.232;2023-07-31T00:46:38;5.53;;;1.65;;
33696;SDS011;20031;43.416;23.232;2023-07-31T00:49:04;4.65;;;1.80;;
33696;SDS011;20031;43.416;23.232;2023-07-31T00:51:30;5.93;;;1.88;;
33696;SDS011;20031;43.416;23.232;2023-07-31T00:53:56;5.10;;;1.90;;
33696;SDS011;20031;43.416;23.232;2023-07-31T00:56:22;4.35;;;1.67;;
33696;SDS011;20031;43.416;23.232;2023-07-31T00:58:48;2.97;;;1.80;;
33696;SDS011;20031;43.416;23.232;2023-07-31T01:01:14;3.13;;;1.90;;
33696;SDS011;20031;43.416;23.232;2023-07-31T01:03:39;5.55;;;1.73;;
33696;SDS011;20031;43.416;23.232;2023-07-31T01:06:15;5.32;;;2.10;;
33696;SDS011;20031;43.416;23.232;2023-07-31T01:11:34;2.80;;;1.60;;
33696;SDS011;20031;43.416;23.232;2023-07-31T01:14:13;5.68;;;1.73;;
33696;SDS011;20031;43.416;23.232;2023-07-31T01:16:38;2.38;;;1.58;;
33696;SDS011;20031;43.416;23.232;2023-07-31T01:19:05;5.43;;;1.77;;
33696;SDS011;20031;43.416;23.232;2023-07-31T01:24:34;6.53;;;1.73;;
33696;SDS011;20031;43.416;23.232;2023-07-31T01:27:14;3.92;;;1.73;;
33696;SDS011;20031;43.416;23.232;2023-07-31T01:34:54;4.80;;;1.33;;
33696;SDS011;20031;43.416;23.232;2023-07-31T01:37:22;6.78;;;1.67;;
33696;SDS011;20031;43.416;23.232;2023-07-31T01:39:53;4.60;;;1.77;;
33696;SDS011;20031;43.416;23.232;2023-07-31T01:42:18;2.75;;;1.33;;
33696;SDS011;20031;43.416;23.232;2023-07-31T01:44:44;4.10;;;1.70;;
33696;SDS011;20031;43.416;23.232;2023-07-31T01:47:09;65.78;;;2.92;;
33696;SDS011;20031;43.416;23.232;2023-07-31T01:49:35;7.55;;;2.00;;
33696;SDS011;20031;43.416;23.232;2023-07-31T01:52:00;15.60;;;2.63;;
33696;SDS011;20031;43.416;23.232;2023-07-31T01:54:25;4.47;;;1.80;;
33696;SDS011;20031;43.416;23.232;2023-07-31T01:56:51;7.50;;;2.05;;
33696;SDS011;20031;43.416;23.232;2023-07-31T01:59:16;40.88;;;2.20;;
33696;SDS011;20031;43.416;23.232;2023-07-31T02:01:42;7.63;;;1.73;;
33696;SDS011;20031;43.416;23.232;2023-07-31T02:04:07;11.07;;;1.83;;
33696;SDS011;20031;43.416;23.232;2023-07-31T02:06:33;8.43;;;1.70;;
33696;SDS011;20031;43.416;23.232;2023-07-31T02:08:58;7.85;;;1.90;;
33696;SDS011;20031;43.416;23.232;2023-07-31T02:11:23;28.77;;;2.22;;
33696;SDS011;20031;43.416;23.232;2023-07-31T02:13:49;6.55;;;1.70;;
33696;SDS011;20031;43.416;23.232;2023-07-31T02:16:14;4.05;;;1.88;;
33696;SDS011;20031;43.416;23.232;2023-07-31T02:18:40;7.68;;;2.22;;
33696;SDS011;20031;43.416;23.232;2023-07-31T02:21:05;4.70;;;2.25;;
33696;SDS011;20031;43.416;23.232;2023-07-31T02:23:30;5.30;;;2.40;;
33696;SDS011;20031;43.416;23.232;2023-07-31T02:25:56;4.78;;;2.70;;
33696;SDS011;20031;43.416;23.232;2023-07-31T02:28:21;7.63;;;3.00;;
33696;SDS011;20031;43.416;23.232;2023-07-31T02:30:47;6.85;;;3.00;;
33696;SDS011;20031;43.416;23.232;2023-07-31T02:33:12;6.50;;;3.45;;
33696;SDS011;20031;43.416;23.232;2023-07-31T02:35:37;8.43;;;3.30;;
33696;SDS011;20031;43.416;23.232;2023-07-31T02:38:03;9.43;;;4.15;;
33696;SDS011;20031;43.416;23.232;2023-07-31T02:40:28;11.07;;;5.55;;
33696;SDS011;20031;43.416;23.232;2023-07-31T02:42:54;12.57;;;7.13;;
33696;SDS011;20031;43.416;23.232;2023-07-31T02:45:19;11.18;;;7.95;;
33696;SDS011;20031;43.416;23.232;2023-07-31T02:47:45;12.63;;;7.95;;
33696;SDS011;20031;43.416;23.232;2023-07-31T02:50:10;10.60;;;5.30;;
33696;SDS011;20031;43.416;23.232;2023-07-31T02:52:35;4.20;;;2.88;;
33696;SDS011;20031;43.416;23.232;2023-07-31T02:55:01;7.05;;;2.55;;
33696;SDS011;20031;43.416;23.232;2023-07-31T02:57:26;4.95;;;2.47;;
33696;SDS011;20031;43.416;23.232;2023-07-31T02:59:52;6.03;;;2.85;;
33696;SDS011;20031;43.416;23.232;2023-07-31T03:02:17;20.70;;;3.70;;
33696;SDS011;20031;43.416;23.232;2023-07-31T03:04:43;9.07;;;3.33;;
33696;SDS011;20031;43.416;23.232;2023-07-31T03:07:08;9.30;;;3.30;;
33696;SDS011;20031;43.416;23.232;2023-07-31T03:09:34;11.65;;;3.92;;
33696;SDS011;20031;43.416;23.232;2023-07-31T03:11:59;11.50;;;4.25;;
33696;SDS011;20031;43.416;23.232;2023-07-31T03:14:25;5.90;;;4.03;;
33696;SDS011;20031;43.416;23.232;2023-07-31T03:16:51;14.45;;;4.15;;
33696;SDS011;20031;43.416;23.232;2023-07-31T03:19:17;9.45;;;4.22;;
33696;SDS011;20031;43.416;23.232;2023-07-31T03:21:43;12.07;;;3.22;;
33696;SDS011;20031;43.416;23.232;2023-07-31T03:24:08;7.68;;;3.63;;
33696;SDS011;20031;43.416;23.232;2023-07-31T03:26:33;8.73;;;3.65;;
33696;SDS011;20031;43.416;23.232;2023-07-31T03:29:00;9.65;;;3.92;;
33696;SDS011;20031;43.416;23.232;2023-07-31T03:31:25;12.35;;;3.85;;
33696;SDS011;20031;43.416;23.232;2023-07-31T03:33:51;6.82;;;3.63;;
33696;SDS011;20031;43.416;23.232;2023-07-31T03:36:16;7.55;;;4.03;;
33696;SDS011;20031;43.416;23.232;2023-07-31T03:38:41;5.95;;;3.90;;
33696;SDS011;20031;43.416;23.232;2023-07-31T03:41:07;10.10;;;4.00;;
33696;SDS011;20031;43.416;23.232;2023-07-31T03:43:32;10.15;;;3.42;;
33696;SDS011;20031;43.416;23.232;2023-07-31T03:46:01;5.68;;;3.17;;
33696;SDS011;20031;43.416;23.232;2023-07-31T03:48:27;5.22;;;3.47;;
33696;SDS011;20031;43.416;23.232;2023-07-31T03:50:53;10.90;;;3.40;;
33696;SDS011;20031;43.416;23.232;2023-07-31T03:53:19;5.15;;;3.55;;
33696;SDS011;20031;43.416;23.232;2023-07-31T03:55:45;5.93;;;3.25;;
33696;SDS011;20031;43.416;23.232;2023-07-31T03:58:10;4.15;;;3.00;;
33696;SDS011;20031;43.416;23.232;2023-07-31T04:00:36;5.55;;;3.70;;
33696;SDS011;20031;43.416;23.232;2023-07-31T04:03:01;6.20;;;3.92;;
33696;SDS011;20031;43.416;23.232;2023-07-31T04:05:27;12.52;;;3.72;;
33696;SDS011;20031;43.416;23.232;2023-07-31T04:07:52;7.13;;;4.10;;
33696;SDS011;20031;43.416;23.232;2023-07-31T04:10:17;9.30;;;4.13;;
33696;SDS011;20031;43.416;23.232;2023-07-31T04:12:43;9.02;;;4.28;;
33696;SDS011;20031;43.416;23.232;2023-07-31T04:15:08;13.35;;;4.28;;
33696;SDS011;20031;43.416;23.232;2023-07-31T04:17:34;12.40;;;4.60;;
33696;SDS011;20031;43.416;23.232;2023-07-31T04:20:00;11.32;;;5.28;;
33696;SDS011;20031;43.416;23.232;2023-07-31T04:22:25;10.88;;;4.90;;
33696;SDS011;20031;43.416;23.232;2023-07-31T04:24:51;7.38;;;4.50;;
33696;SDS011;20031;43.416;23.232;2023-07-31T04:27:16;10.30;;;4.20;;
33696;SDS011;20031;43.416;23.232;2023-07-31T04:29:41;10.57;;;4.30;;
33696;SDS011;20031;43.416;23.232;2023-07-31T04:32:09;9.77;;;4.60;;
33696;SDS011;20031;43.416;23.232;2023-07-31T04:34:34;11.00;;;4.47;;
33696;SDS011;20031;43.416;23.232;2023-07-31T04:37:00;18.33;;;6.72;;
33696;SDS011;20031;43.416;23.232;2023-07-31T04:39:25;14.05;;;5.50;;
33696;SDS011;20031;43.416;23.232;2023-07-31T04:41:51;9.45;;;4.97;;
33696;SDS011;20031;43.416;23.232;2023-07-31T04:44:16;14.45;;;6.18;;
33696;SDS011;20031;43.416;23.232;2023-07-31T04:46:42;7.32;;;4.10;;
33696;SDS011;20031;43.416;23.232;2023-07-31T04:49:07;10.90;;;4.10;;
33696;SDS011;20031;43.416;23.232;2023-07-31T04:51:32;6.75;;;3.47;;
33696;SDS011;20031;43.416;23.232;2023-07-31T04:53:58;6.72;;;3.30;;
33696;SDS011;20031;43.416;23.232;2023-07-31T04:56:23;5.47;;;3.10;;
33696;SDS011;20031;43.416;23.232;2023-07-31T04:58:49;5.97;;;3.20;;
33696;SDS011;20031;43.416;23.232;2023-07-31T05:01:14;10.65;;;3.33;;
33696;SDS011;20031;43.416;23.232;2023-07-31T05:03:39;13.85;;;3.25;;
33696;SDS011;20031;43.416;23.232;2023-07-31T05:06:05;6.38;;;2.78;;
33696;SDS011;20031;43.416;23.232;2023-07-31T05:08:30;8.52;;;2.90;;
33696;SDS011;20031;43.416;23.232;2023-07-31T05:10:56;8.25;;;2.60;;
33696;SDS011;20031;43.416;23.232;2023-07-31T05:13:21;3.97;;;2.35;;
33696;SDS011;20031;43.416;23.232;2023-07-31T05:15:47;6.47;;;2.28;;
33696;SDS011;20031;43.416;23.232;2023-07-31T05:18:14;3.28;;;2.00;;
33696;SDS011;20031;43.416;23.232;2023-07-31T05:20:39;4.57;;;2.40;;
33696;SDS011;20031;43.416;23.232;2023-07-31T05:23:05;3.58;;;2.50;;
33696;SDS011;20031;43.416;23.232;2023-07-31T05:25:30;4.20;;;2.38;;
33696;SDS011;20031;43.416;23.232;2023-07-31T05:27:56;4.10;;;2.25;;
33696;SDS011;20031;43.416;23.232;2023-07-31T05:30:21;5.07;;;2.22;;
33696;SDS011;20031;43.416;23.232;2023-07-31T05:32:47;4.55;;;2.30;;
33696;SDS011;20031;43.416;23.232;2023-07-31T05:35:12;5.75;;;2.20;;
33696;SDS011;20031;43.416;23.232;2023-07-31T05:37:37;4.55;;;2.17;;
33696;SDS011;20031;43.416;23.232;2023-07-31T05:40:03;8.88;;;2.15;;
33696;SDS011;20031;43.416;23.232;2023-07-31T05:42:29;6.85;;;1.90;;
33696;SDS011;20031;43.416;23.232;2023-07-31T05:44:54;4.32;;;2.20;;
33696;SDS011;20031;43.416;23.232;2023-07-31T05:47:20;3.53;;;2.28;;
33696;SDS011;20031;43.416;23.232;2023-07-31T05:49:45;4.68;;;1.83;;
33696;SDS011;20031;43.416;23.232;2023-07-31T05:52:11;5.93;;;2.00;;
33696;SDS011;20031;43.416;23.232;2023-07-31T05:54:36;6.45;;;1.98;;
33696;SDS011;20031;43.416;23.232;2023-07-31T05:57:01;7.72;;;1.98;;
33696;SDS011;20031;43.416;23.232;2023-07-31T05:59:27;2.53;;;1.85;;
33696;SDS011;20031;43.416;23.232;2023-07-31T06:01:52;6.75;;;2.10;;
33696;SDS011;20031;43.416;23.232;2023-07-31T06:04:18;3.95;;;1.98;;
33696;SDS011;20031;43.416;23.232;2023-07-31T06:06:43;6.85;;;1.80;;
33696;SDS011;20031;43.416;23.232;2023-07-31T06:09:09;3.30;;;1.80;;
33696;SDS011;20031;43.416;23.232;2023-07-31T06:11:34;2.17;;;1.60;;
33696;SDS011;20031;43.416;23.232;2023-07-31T06:14:00;3.63;;;1.85;;
33696;SDS011;20031;43.416;23.232;2023-07-31T06:16:25;3.45;;;1.60;;
33696;SDS011;20031;43.416;23.232;2023-07-31T06:18:52;6.00;;;2.00;;
33696;SDS011;20031;43.416;23.232;2023-07-31T06:21:17;4.45;;;2.10;;
33696;SDS011;20031;43.416;23.232;2023-07-31T06:23:42;6.25;;;1.80;;
33696;SDS011;20031;43.416;23.232;2023-07-31T06:26:08;3.05;;;1.50;;
33696;SDS011;20031;43.416;23.232;2023-07-31T06:28:34;3.55;;;1.90;;
33696;SDS011;20031;43.416;23.232;2023-07-31T06:31:00;3.63;;;1.70;;
33696;SDS011;20031;43.416;23.232;2023-07-31T06:33:26;3.30;;;1.85;;
33696;SDS011;20031;43.416;23.232;2023-07-31T06:35:51;3.97;;;1.92;;
33696;SDS011;20031;43.416;23.232;2023-07-31T06:38:35;3.00;;;1.90;;
33696;SDS011;20031;43.416;23.232;2023-07-31T06:41:02;4.40;;;1.90;;
33696;SDS011;20031;43.416;23.232;2023-07-31T06:43:27;5.05;;;1.90;;
33696;SDS011;20031;43.416;23.232;2023-07-31T06:45:53;5.13;;;1.80;;
33696;SDS011;20031;43.416;23.232;2023-07-31T06:48:18;4.55;;;1.70;;
33696;SDS011;20031;43.416;23.232;2023-07-31T06:50:44;4.88;;;2.50;;
33696;SDS011;20031;43.416;23.232;2023-07-31T06:53:09;4.70;;;2.05;;
33696;SDS011;20031;43.416;23.232;2023-07-31T06:55:35;2.17;;;1.42;;
33696;SDS011;20031;43.416;23.232;2023-07-31T06:58:00;2.70;;;1.58;;
33696;SDS011;20031;43.416;23.232;2023-07-31T07:00:25;4.75;;;1.50;;
33696;SDS011;20031;43.416;23.232;2023-07-31T07:02:52;3.90;;;1.70;;
33696;SDS011;20031;43.416;23.232;2023-07-31T07:05:17;5.70;;;1.88;;
33696;SDS011;20031;43.416;23.232;2023-07-31T07:07:43;4.47;;;1.65;;
33696;SDS011;20031;43.416;23.232;2023-07-31T07:10:09;4.93;;;1.73;;
33696;SDS011;20031;43.416;23.232;2023-07-31T07:12:35;6.68;;;1.90;;
33696;SDS011;20031;43.416;23.232;2023-07-31T07:15:01;7.38;;;2.08;;
33696;SDS011;20031;43.416;23.232;2023-07-31T07:17:27;4.00;;;2.08;;
33696;SDS011;20031;43.416;23.232;2023-07-31T07:19:56;3.28;;;1.73;;
33696;SDS011;20031;43.416;23.232;2023-07-31T07:22:22;3.35;;;1.70;;
33696;SDS011;20031;43.416;23.232;2023-07-31T07:24:48;7.93;;;2.20;;
33696;SDS011;20031;43.416;23.232;2023-07-31T07:27:13;6.20;;;1.92;;
33696;SDS011;20031;43.416;23.232;2023-07-31T07:29:39;5.68;;;1.92;;
33696;SDS011;20031;43.416;23.232;2023-07-31T07:32:05;3.38;;;2.10;;
33696;SDS011;20031;43.416;23.232;2023-07-31T07:34:31;4.60;;;2.10;;
33696;SDS011;20031;43.416;23.232;2023-07-31T07:36:56;4.25;;;2.00;;
33696;SDS011;20031;43.416;23.232;2023-07-31T07:39:22;5.43;;;2.13;;
33696;SDS011;20031;43.416;23.232;2023-07-31T07:41:47;4.10;;;2.00;;
33696;SDS011;20031;43.416;23.232;2023-07-31T07:44:13;5.50;;;1.95;;
33696;SDS011;20031;43.416;23.232;2023-07-31T07:46:39;2.90;;;2.10;;
33696;SDS011;20031;43.416;23.232;2023-07-31T07:49:05;2.72;;;1.95;;
33696;SDS011;20031;43.416;23.232;2023-07-31T07:51:30;2.75;;;2.05;;
33696;SDS011;20031;43.416;23.232;2023-07-31T07:53:57;8.45;;;2.13;;
33696;SDS011;20031;43.416;23.232;2023-07-31T07:56:23;3.75;;;2.22;;
33696;SDS011;20031;43.416;23.232;2023-07-31T07:58:50;4.40;;;2.30;;
33696;SDS011;20031;43.416;23.232;2023-07-31T08:01:16;4.60;;;2.50;;
33696;SDS011;20031;43.416;23.232;2023-07-31T08:03:41;5.50;;;2.20;;
33696;SDS011;20031;43.416;23.232;2023-07-31T08:06:07;5.95;;;2.45;;
33696;SDS011;20031;43.416;23.232;2023-07-31T08:08:34;4.65;;;2.42;;
33696;SDS011;20031;43.416;23.232;2023-07-31T08:11:00;8.88;;;2.40;;
33696;SDS011;20031;43.416;23.232;2023-07-31T08:13:25;4.57;;;1.95;;
33696;SDS011;20031;43.416;23.232;2023-07-31T08:15:51;7.47;;;2.10;;
33696;SDS011;20031;43.416;23.232;2023-07-31T08:18:16;6.03;;;1.95;;
33696;SDS011;20031;43.416;23.232;2023-07-31T08:20:42;2.80;;;1.75;;
33696;SDS011;20031;43.416;23.232;2023-07-31T08:23:09;5.78;;;2.00;;
33696;SDS011;20031;43.416;23.232;2023-07-31T08:25:35;3.88;;;1.95;;
33696;SDS011;20031;43.416;23.232;2023-07-31T08:28:01;3.70;;;1.85;;
33696;SDS011;20031;43.416;23.232;2023-07-31T08:30:27;3.33;;;1.95;;
33696;SDS011;20031;43.416;23.232;2023-07-31T08:32:52;2.47;;;1.80;;
33696;SDS011;20031;43.416;23.232;2023-07-31T08:35:18;3.30;;;1.70;;
33696;SDS011;20031;43.416;23.232;2023-07-31T08:37:44;6.30;;;2.00;;
33696;SDS011;20031;43.416;23.232;2023-07-31T08:40:10;3.25;;;1.75;;
33696;SDS011;20031;43.416;23.232;2023-07-31T08:42:49;3.85;;;2.10;;
33696;SDS011;20031;43.416;23.232;2023-07-31T08:45:16;4.70;;;2.10;;
33696;SDS011;20031;43.416;23.232;2023-07-31T08:47:44;7.97;;;2.63;;
33696;SDS011;20031;43.416;23.232;2023-07-31T08:50:14;4.05;;;1.65;;
33696;SDS011;20031;43.416;23.232;2023-07-31T08:52:42;3.25;;;1.83;;
33696;SDS011;20031;43.416;23.232;2023-07-31T08:55:08;7.75;;;1.75;;
33696;SDS011;20031;43.416;23.232;2023-07-31T08:57:34;2.42;;;1.60;;
33696;SDS011;20031;43.416;23.232;2023-07-31T09:00:03;5.53;;;1.92;;
33696;SDS011;20031;43.416;23.232;2023-07-31T09:02:46;5.13;;;2.35;;
33696;SDS011;20031;43.416;23.232;2023-07-31T09:05:16;9.07;;;2.20;;
33696;SDS011;20031;43.416;23.232;2023-07-31T09:07:42;8.75;;;2.28;;
33696;SDS011;20031;43.416;23.232;2023-07-31T09:10:11;2.72;;;1.90;;
33696;SDS011;20031;43.416;23.232;2023-07-31T09:12:37;2.80;;;1.77;;
33696;SDS011;20031;43.416;23.232;2023-07-31T09:15:03;5.85;;;1.73;;
33696;SDS011;20031;43.416;23.232;2023-07-31T09:17:30;4.38;;;1.70;;
33696;SDS011;20031;43.416;23.232;2023-07-31T09:19:56;3.13;;;1.80;;
33696;SDS011;20031;43.416;23.232;2023-07-31T09:22:32;4.85;;;1.85;;
33696;SDS011;20031;43.416;23.232;2023-07-31T09:27:54;5.25;;;1.42;;
33696;SDS011;20031;43.416;23.232;2023-07-31T09:30:22;5.40;;;1.40;;
33696;SDS011;20031;43.416;23.232;2023-07-31T09:32:49;4.13;;;1.55;;
33696;SDS011;20031;43.416;23.232;2023-07-31T09:35:19;4.70;;;1.50;;
33696;SDS011;20031;43.416;23.232;2023-07-31T09:37:55;3.28;;;1.40;;
33696;SDS011;20031;43.416;23.232;2023-07-31T09:40:32;3.35;;;1.60;;
33696;SDS011;20031;43.416;23.232;2023-07-31T09:43:00;6.85;;;1.48;;
33696;SDS011;20031;43.416;23.232;2023-07-31T09:45:25;4.57;;;1.45;;
33696;SDS011;20031;43.416;23.232;2023-07-31T09:47:51;6.47;;;1.50;;
33696;SDS011;20031;43.416;23.232;2023-07-31T09:50:19;2.58;;;1.40;;
33696;SDS011;20031;43.416;23.232;2023-07-31T09:52:46;2.53;;;1.35;;
33696;SDS011;20031;43.416;23.232;2023-07-31T09:55:11;2.03;;;1.40;;
33696;SDS011;20031;43.416;23.232;2023-07-31T09:57:39;7.00;;;1.30;;
33696;SDS011;20031;43.416;23.232;2023-07-31T10:00:06;1.30;;;1.10;;
33696;SDS011;20031;43.416;23.232;2023-07-31T10:02:34;1.52;;;1.20;;
33696;SDS011;20031;43.416;23.232;2023-07-31T10:05:02;2.08;;;1.20;;
33696;SDS011;20031;43.416;23.232;2023-07-31T10:07:28;5.10;;;1.20;;
33696;SDS011;20031;43.416;23.232;2023-07-31T10:09:57;2.92;;;1.60;;
33696;SDS011;20031;43.416;23.232;2023-07-31T10:12:25;4.75;;;1.20;;
33696;SDS011;20031;43.416;23.232;2023-07-31T10:14:54;5.82;;;1.33;;
33696;SDS011;20031;43.416;23.232;2023-07-31T10:17:21;5.47;;;1.45;;
33696;SDS011;20031;43.416;23.232;2023-07-31T10:19:48;4.07;;;1.30;;
33696;SDS011;20031;43.416;23.232;2023-07-31T10:22:14;8.35;;;1.70;;
33696;SDS011;20031;43.416;23.232;2023-07-31T10:24:41;5.32;;;1.40;;
33696;SDS011;20031;43.416;23.232;2023-07-31T10:27:08;2.30;;;1.50;;
33696;SDS011;20031;43.416;23.232;2023-07-31T10:29:34;2.28;;;1.58;;
33696;SDS011;20031;43.416;23.232;2023-07-31T10:32:01;2.67;;;1.50;;
33696;SDS011;20031;43.416;23.232;2023-07-31T10:34:31;3.78;;;1.38;;
33696;SDS011;20031;43.416;23.232;2023-07-31T10:42:34;6.53;;;1.58;;
33696;SDS011;20031;43.416;23.232;2023-07-31T10:45:04;5.47;;;1.20;;
33696;SDS011;20031;43.416;23.232;2023-07-31T10:47:36;3.20;;;1.20;;
33696;SDS011;20031;43.416;23.232;2023-07-31T10:50:21;3.88;;;1.27;;
33696;SDS011;20031;43.416;23.232;2023-07-31T10:52:50;3.28;;;1.33;;
33696;SDS011;20031;43.416;23.232;2023-07-31T10:57:51;2.35;;;1.40;;
33696;SDS011;20031;43.416;23.232;2023-07-31T11:05:43;2.90;;;1.67;;
33696;SDS011;20031;43.416;23.232;2023-07-31T11:08:13;2.20;;;1.65;;
33696;SDS011;20031;43.416;23.232;2023-07-31T11:10:51;3.58;;;1.75;;
33696;SDS011;20031;43.416;23.232;2023-07-31T11:13:26;2.65;;;1.90;;
33696;SDS011;20031;43.416;23.232;2023-07-31T11:15:51;4.10;;;1.70;;
33696;SDS011;20031;43.416;23.232;2023-07-31T11:18:17;4.05;;;1.60;;
33696;SDS011;20031;43.416;23.232;2023-07-31T11:20:43;2.20;;;1.63;;
33696;SDS011;20031;43.416;23.232;2023-07-31T11:23:09;2.90;;;1.40;;
33696;SDS011;20031;43.416;23.232;2023-07-31T11:25:36;5.70;;;1.60;;
33696;SDS011;20031;43.416;23.232;2023-07-31T11:28:06;5.82;;;1.60;;
33696;SDS011;20031;43.416;23.232;2023-07-31T11:30:34;11.00;;;1.85;;
33696;SDS011;20031;43.416;23.232;2023-07-31T11:33:01;8.60;;;2.17;;
33696;SDS011;20031;43.416;23.232;2023-07-31T11:35:32;4.80;;;1.80;;
33696;SDS011;20031;43.416;23.232;2023-07-31T11:37:58;2.53;;;1.70;;
33696;SDS011;20031;43.416;23.232;2023-07-31T11:40:24;2.80;;;1.95;;
33696;SDS011;20031;43.416;23.232;2023-07-31T11:42:57;3.95;;;1.80;;
33696;SDS011;20031;43.416;23.232;2023-07-31T11:45:26;2.47;;;1.92;;
33696;SDS011;20031;43.416;23.232;2023-07-31T11:47:56;3.80;;;1.90;;
33696;SDS011;20031;43.416;23.232;2023-07-31T11:50:24;2.63;;;1.70;;
33696;SDS011;20031;43.416;23.232;2023-07-31T11:52:53;4.22;;;2.00;;
33696;SDS011;20031;43.416;23.232;2023-07-31T11:55:24;2.95;;;1.60;;
33696;SDS011;20031;43.416;23.232;2023-07-31T11:57:50;4.38;;;1.90;;
33696;SDS011;20031;43.416;23.232;2023-07-31T12:00:17;6.40;;;2.15;;
33696;SDS011;20031;43.416;23.232;2023-07-31T12:02:43;1.75;;;1.65;;
33696;SDS011;20031;43.416;23.232;2023-07-31T12:05:12;3.25;;;1.52;;
33696;SDS011;20031;43.416;23.232;2023-07-31T12:10:26;4.05;;;1.70;;
33696;SDS011;20031;43.416;23.232;2023-07-31T12:13:01;6.35;;;1.60;;
33696;SDS011;20031;43.416;23.232;2023-07-31T12:15:38;3.15;;;1.67;;
33696;SDS011;20031;43.416;23.232;2023-07-31T12:18:11;3.95;;;2.30;;
33696;SDS011;20031;43.416;23.232;2023-07-31T12:23:17;5.97;;;2.10;;
33696;SDS011;20031;43.416;23.232;2023-07-31T12:26:02;3.50;;;2.33;;
33696;SDS011;20031;43.416;23.232;2023-07-31T12:28:45;2.75;;;2.00;;
33696;SDS011;20031;43.416;23.232;2023-07-31T12:31:13;4.43;;;2.10;;
33696;SDS011;20031;43.416;23.232;2023-07-31T12:33:40;3.65;;;2.03;;
33696;SDS011;20031;43.416;23.232;2023-07-31T12:36:07;3.10;;;2.30;;
33696;SDS011;20031;43.416;23.232;2023-07-31T12:38:34;5.40;;;2.30;;
33696;SDS011;20031;43.416;23.232;2023-07-31T12:40:59;4.80;;;2.10;;
33696;SDS011;20031;43.416;23.232;2023-07-31T12:43:25;2.38;;;1.63;;
33696;SDS011;20031;43.416;23.232;2023-07-31T12:45:50;2.75;;;2.03;;
33696;SDS011;20031;43.416;23.232;2023-07-31T12:48:16;5.20;;;2.08;;
33696;SDS011;20031;43.416;23.232;2023-07-31T12:50:42;4.10;;;1.70;;
33696;SDS011;20031;43.416;23.232;2023-07-31T12:53:07;2.90;;;1.50;;
33696;SDS011;20031;43.416;23.232;2023-07-31T12:55:32;1.70;;;1.60;;
33696;SDS011;20031;43.416;23.232;2023-07-31T12:57:59;5.35;;;1.70;;
33696;SDS011;20031;43.416;23.232;2023-07-31T13:00:25;3.08;;;1.60;;
33696;SDS011;20031;43.416;23.232;2023-07-31T13:02:51;1.90;;;1.60;;
33696;SDS011;20031;43.416;23.232;2023-07-31T13:05:16;1.73;;;1.58;;
33696;SDS011;20031;43.416;23.232;2023-07-31T13:07:43;2.70;;;1.65;;
33696;SDS011;20031;43.416;23.232;2023-07-31T13:10:08;2.22;;;1.70;;
33696;SDS011;20031;43.416;23.232;2023-07-31T13:12:34;8.00;;;1.73;;
33696;SDS011;20031;43.416;23.232;2023-07-31T13:14:59;7.20;;;1.75;;
33696;SDS011;20031;43.416;23.232;2023-07-31T13:17:25;5.05;;;1.70;;
33696;SDS011;20031;43.416;23.232;2023-07-31T13:19:51;4.68;;;1.73;;
33696;SDS011;20031;43.416;23.232;2023-07-31T13:22:17;5.47;;;1.42;;
33696;SDS011;20031;43.416;23.232;2023-07-31T13:24:42;5.60;;;1.63;;
33696;SDS011;20031;43.416;23.232;2023-07-31T13:27:07;3.35;;;1.50;;
33696;SDS011;20031;43.416;23.232;2023-07-31T13:29:33;1.92;;;1.30;;
33696;SDS011;20031;43.416;23.232;2023-07-31T13:31:58;5.75;;;1.50;;
33696;SDS011;20031;43.416;23.232;2023-07-31T13:34:24;6.30;;;1.40;;
33696;SDS011;20031;43.416;23.232;2023-07-31T13:36:49;2.63;;;1.40;;
33696;SDS011;20031;43.416;23.232;2023-07-31T13:39:15;4.53;;;1.30;;
33696;SDS011;20031;43.416;23.232;2023-07-31T13:41:40;1.60;;;1.20;;
33696;SDS011;20031;43.416;23.232;2023-07-31T13:44:06;2.47;;;1.30;;
33696;SDS011;20031;43.416;23.232;2023-07-31T13:46:32;6.00;;;1.40;;
33696;SDS011;20031;43.416;23.232;2023-07-31T13:48:58;1.90;;;1.30;;
33696;SDS011;20031;43.416;23.232;2023-07-31T13:51:24;1.40;;;1.20;;
33696;SDS011;20031;43.416;23.232;2023-07-31T13:53:50;4.68;;;1.38;;
33696;SDS011;20031;43.416;23.232;2023-07-31T13:56:15;2.28;;;1.50;;
33696;SDS011;20031;43.416;23.232;2023-07-31T13:58:41;7.20;;;1.38;;
33696;SDS011;20031;43.416;23.232;2023-07-31T14:01:06;3.10;;;1.50;;
33696;SDS011;20031;43.416;23.232;2023-07-31T14:03:32;5.35;;;1.50;;
33696;SDS011;20031;43.416;23.232;2023-07-31T14:05:57;6.70;;;1.58;;
33696;SDS011;20031;43.416;23.232;2023-07-31T14:08:23;3.00;;;1.70;;
33696;SDS011;20031;43.416;23.232;2023-07-31T14:10:48;4.45;;;1.60;;
33696;SDS011;20031;43.416;23.232;2023-07-31T14:13:14;4.53;;;1.58;;
33696;SDS011;20031;43.416;23.232;2023-07-31T14:15:41;2.97;;;1.42;;
33696;SDS011;20031;43.416;23.232;2023-07-31T14:18:08;4.13;;;2.33;;
33696;SDS011;20031;43.416;23.232;2023-07-31T14:20:33;2.92;;;1.55;;
33696;SDS011;20031;43.416;23.232;2023-07-31T14:22:59;3.28;;;1.45;;
33696;SDS011;20031;43.416;23.232;2023-07-31T14:25:24;6.13;;;1.40;;
33696;SDS011;20031;43.416;23.232;2023-07-31T14:27:50;8.57;;;1.80;;
33696;SDS011;20031;43.416;23.232;2023-07-31T14:30:15;3.65;;;1.42;;
33696;SDS011;20031;43.416;23.232;2023-07-31T14:32:42;3.97;;;1.52;;
33696;SDS011;20031;43.416;23.232;2023-07-31T14:35:07;8.10;;;1.88;;
33696;SDS011;20031;43.416;23.232;2023-07-31T14:37:36;3.70;;;1.50;;
33696;SDS011;20031;43.416;23.232;2023-07-31T14:40:03;6.30;;;1.80;;
33696;SDS011;20031;43.416;23.232;2023-07-31T14:42:28;5.90;;;1.70;;
33696;SDS011;20031;43.416;23.232;2023-07-31T14:44:54;3.55;;;1.40;;
33696;SDS011;20031;43.416;23.232;2023-07-31T14:47:19;2.88;;;1.13;;
33696;SDS011;20031;43.416;23.232;2023-07-31T14:49:45;1.52;;;1.10;;
33696;SDS011;20031;43.416;23.232;2023-07-31T14:52:10;4.03;;;1.55;;
33696;SDS011;20031;43.416;23.232;2023-07-31T14:54:36;4.10;;;1.30;;
33696;SDS011;20031;43.416;23.232;2023-07-31T14:57:01;2.45;;;1.30;;
33696;SDS011;20031;43.416;23.232;2023-07-31T14:59:26;2.88;;;1.20;;
33696;SDS011;20031;43.416;23.232;2023-07-31T15:01:52;2.95;;;1.35;;